createdAt,value
2022-08-25T00:03:42.238Z,8.23
2022-08-25T00:11:53.263Z,8.32
2022-08-25T00:20:00.982Z,8.07
2022-08-25T00:28:10.594Z,8.82
2022-08-25T00:36:16.515Z,7.45
2022-08-25T00:44:24.959Z,8.32
2022-08-25T00:52:33.591Z,7.97
2022-08-25T01:00:46.078Z,7.93
2022-08-25T01:08:54.850Z,9.00
2022-08-25T01:17:02.923Z,7.75
2022-08-25T01:25:23.605Z,7.50
2022-08-25T01:33:29.526Z,8.73
2022-08-25T01:41:47.759Z,8.25
2022-08-25T01:49:56.800Z,8.25
2022-08-25T01:58:04.933Z,8.88
2022-08-25T02:06:11.506Z,8.88
2022-08-25T02:14:21.167Z,8.45
2022-08-25T02:22:26.970Z,9.05
2022-08-25T02:30:35.719Z,8.07
2022-08-25T02:38:42.204Z,7.97
2022-08-25T02:46:50.228Z,7.60
2022-08-25T02:54:55.678Z,7.82
2022-08-25T03:03:03.875Z,8.25
2022-08-25T03:11:09.837Z,8.35
2022-08-25T03:19:18.261Z,8.05
2022-08-25T03:27:25.899Z,7.55
2022-08-25T03:35:33.923Z,8.02
2022-08-25T03:43:41.120Z,7.65
2022-08-25T03:51:51.505Z,7.43
2022-08-25T03:59:56.965Z,8.52
2022-08-25T04:08:05.417Z,8.20
2022-08-25T04:16:15.606Z,8.02
2022-08-25T04:24:23.779Z,8.20
2022-08-25T04:32:29.179Z,10.23
2022-08-25T04:40:37.227Z,9.10
2022-08-25T04:48:43.225Z,9.07
2022-08-25T04:56:54.577Z,9.27
2022-08-25T05:05:04.375Z,9.50
2022-08-25T05:13:12.394Z,10.45
2022-08-25T05:21:20.314Z,11.32
2022-08-25T05:29:28.547Z,10.63
2022-08-25T05:37:34.238Z,10.70
2022-08-25T05:45:43.462Z,11.27
2022-08-25T05:53:51.223Z,12.05
2022-08-25T06:02:11.586Z,12.43
2022-08-25T06:10:18.635Z,11.48
2022-08-25T06:18:26.716Z,9.88
2022-08-25T06:26:32.107Z,9.48
2022-08-25T06:34:40.153Z,10.80
2022-08-25T06:42:45.615Z,11.35
2022-08-25T06:50:55.992Z,10.23
2022-08-25T06:59:03.438Z,8.27
2022-08-25T07:07:11.493Z,8.32
2022-08-25T07:15:20.182Z,8.27
2022-08-25T07:23:29.470Z,9.23
2022-08-25T07:31:35.267Z,9.68
2022-08-25T07:39:43.294Z,9.20
2022-08-25T07:47:52.270Z,8.60
2022-08-25T08:04:28.298Z,7.93
2022-08-25T08:12:37.298Z,6.93
2022-08-25T08:20:43.382Z,6.05
2022-08-25T08:28:52.323Z,6.45
2022-08-25T08:36:57.759Z,6.20
2022-08-25T08:45:23.090Z,6.50
2022-08-25T08:53:40.611Z,6.20
2022-08-25T09:01:54.484Z,6.32
2022-08-25T09:10:01.022Z,6.47
2022-08-25T09:18:18.374Z,6.15
2022-08-25T09:26:34.195Z,5.73
2022-08-25T09:34:42.218Z,5.30
2022-08-25T09:42:57.842Z,5.70
2022-08-25T09:51:19.971Z,6.22
2022-08-25T09:59:34.359Z,4.93
2022-08-25T10:07:53.833Z,6.78
2022-08-25T10:16:20.556Z,5.32
2022-08-25T10:24:32.857Z,5.38
2022-08-25T10:32:59.329Z,5.00
2022-08-25T10:41:20.014Z,4.72
2022-08-25T10:49:35.226Z,4.05
2022-08-25T10:57:58.030Z,4.00
2022-08-25T11:06:07.492Z,3.72
2022-08-25T11:14:22.827Z,3.55
2022-08-25T11:22:34.058Z,3.97
2022-08-25T11:30:44.756Z,3.80
2022-08-25T11:39:02.070Z,3.05
2022-08-25T11:47:40.498Z,3.28
2022-08-25T12:04:16.289Z,3.88
2022-08-25T12:12:34.697Z,4.05
2022-08-25T12:21:18.847Z,3.53
2022-08-25T12:29:43.053Z,3.28
2022-08-25T12:38:01.148Z,4.10
2022-08-25T12:46:38.670Z,3.17
2022-08-25T12:54:53.180Z,3.93
2022-08-25T13:03:24.590Z,3.85
2022-08-25T13:11:39.468Z,3.50
2022-08-25T13:19:48.357Z,3.70
2022-08-25T13:27:57.016Z,3.50
2022-08-25T13:36:19.873Z,4.10
2022-08-25T13:44:28.158Z,3.65
2022-08-25T13:52:37.365Z,4.32
2022-08-25T14:00:48.824Z,4.05
2022-08-25T14:09:17.165Z,3.85
2022-08-25T14:17:39.747Z,3.90
2022-08-25T14:25:48.671Z,4.20
2022-08-25T14:34:00.210Z,4.55
2022-08-25T14:42:08.795Z,3.77
2022-08-25T14:50:15.752Z,3.70
2022-08-25T14:58:34.263Z,3.80
2022-08-25T15:06:41.987Z,4.72
2022-08-25T15:14:51.622Z,3.33
2022-08-25T15:22:57.063Z,3.90
2022-08-25T15:31:06.123Z,6.75
2022-08-25T15:39:13.852Z,4.70
2022-08-25T15:47:21.841Z,4.35
2022-08-25T15:55:27.567Z,4.60
2022-08-25T16:03:36.718Z,4.68
2022-08-25T16:11:43.560Z,5.28
2022-08-25T16:19:51.576Z,5.28
2022-08-25T16:27:57.087Z,4.97
2022-08-25T16:36:14.898Z,5.80
2022-08-25T16:44:22.602Z,5.50
2022-08-25T16:52:44.238Z,5.55
2022-08-25T17:00:49.939Z,5.73
2022-08-25T17:08:58.354Z,7.88
2022-08-25T17:17:04.029Z,5.97
2022-08-25T17:25:15.179Z,6.45
2022-08-25T17:33:23.834Z,6.10
2022-08-25T17:41:33.788Z,6.28
2022-08-25T17:49:43.283Z,6.25
2022-08-25T17:57:51.395Z,8.57
2022-08-25T18:05:57.019Z,8.02
2022-08-25T18:14:06.340Z,7.05
2022-08-25T18:22:12.369Z,8.05
2022-08-25T18:30:24.052Z,6.63
2022-08-25T18:38:44.198Z,8.18
2022-08-25T18:46:54.189Z,6.90
2022-08-25T18:55:00.396Z,8.10
2022-08-25T19:03:09.240Z,6.65
2022-08-25T19:11:14.746Z,7.10
2022-08-25T19:19:24.223Z,8.93
2022-08-25T19:27:29.744Z,6.10
2022-08-25T19:35:44.104Z,5.32
2022-08-25T19:43:56.525Z,5.35
2022-08-25T19:52:10.643Z,5.35
2022-08-25T20:00:20.150Z,5.25
2022-08-25T20:08:29.629Z,5.32
2022-08-25T20:16:35.556Z,5.80
2022-08-25T20:24:56.163Z,5.82
2022-08-25T20:33:03.390Z,5.40
2022-08-25T20:41:13.558Z,5.78
2022-08-25T20:49:20.345Z,5.45
2022-08-25T20:57:28.312Z,5.13
2022-08-25T21:05:34.159Z,6.15
2022-08-25T21:13:42.582Z,5.50
2022-08-25T21:21:48.229Z,5.60
2022-08-25T21:29:56.290Z,6.07
2022-08-25T21:38:01.680Z,7.65
2022-08-25T21:46:13.978Z,7.60
2022-08-25T21:54:20.798Z,6.85
2022-08-25T22:02:32.206Z,6.90
2022-08-25T22:10:37.853Z,7.20
2022-08-25T22:18:45.806Z,8.23
2022-08-25T22:26:52.276Z,6.45
2022-08-25T22:35:02.071Z,7.10
2022-08-25T22:43:09.068Z,6.78
2022-08-25T22:51:20.954Z,5.97
2022-08-25T22:59:27.002Z,6.68
2022-08-25T23:07:35.683Z,6.75
2022-08-25T23:15:41.423Z,5.85
2022-08-25T23:23:49.813Z,6.50
2022-08-25T23:31:56.091Z,6.18
2022-08-25T23:40:04.395Z,6.50
2022-08-25T23:48:12.039Z,5.57
2022-08-25T23:56:20.292Z,5.13
